首页
METAR-TAF:

METAR-TAF

机场 :

克羅托內, 意大利

纬度: 39-00N, 经度: 017-04E, 海拔: 155米

当前天气观测

该预报发布于26分钟前的11:50 UTC
风速11节,风向
温度 15°C
湿度 82%
气压 1019 hPa
能見度: 8000
散云层高于1000英尺
散云层高于2000英尺

METAR: LIBC 261150Z 18011KT 8000 SCT010 SCT020 15/12 Q1019

时间: 13:16 (12:16 UTC)

预报

该预报发布于1小时和16分钟前的11:00 UTC
预报有效从26日的 12点(UTC)到 27日的 12点(UTC)
风速13节,风向
能见度10公里或以上
散云层高于2000英尺
成为
从 26日的 17点(UTC)到 26日的 19点(UTC)
风速5节,风向多变
成为
从 27日的 08点(UTC)到 27日的 10点(UTC)
风速12节,风向北转东北

TAF: LIBC 261100Z 2612/2712 18013KT 9999 SCT020 BECMG 2617/2619 VRB05KT BECMG 2708/2710 02012KT

超过4000个机场的气象观测和天气预报(METAR&TAF报告)。

可查询的气象台以黄色和红色小点在地图上表示。

将鼠标移到小点上方,可查看气象台名称。

然后点击查看天气观测和预报。

如需切换地图:点击带黑十字的绿色按钮放大地图;点击带横线的绿色按钮缩小地图;或者点击绿色箭头查看邻近地区的地图。


METAR-TAF: